createdAt,value
2018-04-24T00:01:55.365Z,12.69
2018-04-24T00:04:23.419Z,12.62
2018-04-24T00:06:51.786Z,12.42
2018-04-24T00:09:20.585Z,12.39
2018-04-24T00:11:48.780Z,12.59
2018-04-24T00:14:16.868Z,12.58
2018-04-24T00:16:45.298Z,12.52
2018-04-24T00:19:13.375Z,12.44
2018-04-24T00:21:41.458Z,12.48
2018-04-24T00:24:09.586Z,12.34
2018-04-24T00:26:37.708Z,12.34
2018-04-24T00:29:05.834Z,12.48
2018-04-24T00:31:33.910Z,12.52
2018-04-24T00:34:02.027Z,12.38
2018-04-24T00:36:30.108Z,12.43
2018-04-24T00:38:59.079Z,12.51
2018-04-24T00:41:27.141Z,12.39
2018-04-24T00:43:55.273Z,12.49
2018-04-24T00:46:23.328Z,12.46
2018-04-24T00:48:51.468Z,12.46
2018-04-24T00:51:19.558Z,12.42
2018-04-24T00:53:47.742Z,12.47
2018-04-24T00:56:15.852Z,12.46
2018-04-24T00:58:48.892Z,12.56
2018-04-24T01:01:17.317Z,12.61
2018-04-24T01:03:45.413Z,12.62
2018-04-24T01:06:13.498Z,12.69
2018-04-24T01:08:42.222Z,12.48
2018-04-24T01:11:11.208Z,12.48
2018-04-24T01:13:39.333Z,12.43
2018-04-24T01:16:07.405Z,12.59
2018-04-24T01:18:35.479Z,12.55
2018-04-24T01:21:04.443Z,12.54
2018-04-24T01:23:32.531Z,12.52
2018-04-24T01:26:00.634Z,12.54
2018-04-24T01:28:28.730Z,12.50
2018-04-24T01:30:56.874Z,12.53
2018-04-24T01:33:25.772Z,12.50
2018-04-24T01:35:53.946Z,12.42
2018-04-24T01:38:22.038Z,12.49
2018-04-24T01:40:50.128Z,12.55
2018-04-24T01:56:18.235Z,12.40
2018-04-24T01:58:46.340Z,12.42
2018-04-24T02:01:14.458Z,12.49
2018-04-24T02:03:42.587Z,12.55
2018-04-24T02:06:11.743Z,12.51
2018-04-24T02:08:41.041Z,12.57
2018-04-24T02:11:09.119Z,12.59
2018-04-24T02:13:37.208Z,12.49
2018-04-24T02:16:05.303Z,12.51
2018-04-24T02:18:33.713Z,12.52
2018-04-24T02:21:01.801Z,12.48
2018-04-24T02:23:30.243Z,12.53
2018-04-24T02:25:59.204Z,12.63
2018-04-24T02:38:12.330Z,12.62
2018-04-24T02:40:40.432Z,12.63
2018-04-24T02:43:08.552Z,12.57
2018-04-24T02:45:36.706Z,12.58
2018-04-24T02:48:06.560Z,12.66
2018-04-24T02:50:34.729Z,12.68
2018-04-24T02:53:02.803Z,12.63
2018-04-24T02:55:31.667Z,12.58
2018-04-24T02:57:59.809Z,12.61
2018-04-24T03:00:27.887Z,12.60
2018-04-24T03:02:55.971Z,12.52
2018-04-24T03:05:24.080Z,12.59
2018-04-24T03:07:52.207Z,12.66
2018-04-24T03:10:20.290Z,12.59
2018-04-24T03:12:48.451Z,12.62
2018-04-24T03:15:17.235Z,12.73
2018-04-24T03:17:45.637Z,12.69
2018-04-24T03:20:14.478Z,12.71
2018-04-24T03:22:48.024Z,12.75
2018-04-24T03:25:16.135Z,12.74
2018-04-24T03:27:44.214Z,12.72
2018-04-24T03:30:14.041Z,12.70
2018-04-24T03:32:42.160Z,12.59
2018-04-24T03:35:10.295Z,12.60
2018-04-24T03:37:43.982Z,12.62
2018-04-24T03:40:12.086Z,12.70
2018-04-24T03:42:40.190Z,12.76
2018-04-24T03:45:08.269Z,12.74
2018-04-24T03:47:36.732Z,12.82
2018-04-24T03:50:04.803Z,12.69
2018-04-24T03:52:32.890Z,12.64
2018-04-24T03:55:00.987Z,12.66
2018-04-24T03:57:29.104Z,12.61
2018-04-24T03:59:57.213Z,12.70
2018-04-24T04:02:25.307Z,12.70
2018-04-24T04:04:54.252Z,12.67
2018-04-24T04:07:23.034Z,12.57
2018-04-24T04:09:51.187Z,12.57
2018-04-24T04:12:19.207Z,12.53
2018-04-24T04:14:48.043Z,12.50
2018-04-24T04:17:27.967Z,12.53
2018-04-24T04:20:08.004Z,12.62
2018-04-24T04:22:47.881Z,12.52
2018-04-24T04:25:15.973Z,12.35
2018-04-24T04:27:44.880Z,12.42
2018-04-24T04:30:12.983Z,12.62
2018-04-24T04:32:41.324Z,12.61
2018-04-24T04:35:09.332Z,12.76
2018-04-24T04:37:37.420Z,12.77
2018-04-24T04:40:05.550Z,12.72
2018-04-24T04:42:33.643Z,12.73
2018-04-24T04:45:01.725Z,12.91
2018-04-24T04:47:29.875Z,12.95
2018-04-24T04:50:03.511Z,12.90
2018-04-24T04:52:37.054Z,12.92
2018-04-24T04:55:05.422Z,13.00
2018-04-24T04:57:33.528Z,13.11
2018-04-24T05:00:02.128Z,13.17
2018-04-24T05:02:30.247Z,13.15
2018-04-24T05:04:58.353Z,13.23
2018-04-24T05:07:26.449Z,13.28
2018-04-24T05:09:54.535Z,13.37
2018-04-24T05:12:22.635Z,13.43
2018-04-24T05:14:50.714Z,13.40
2018-04-24T05:30:18.856Z,13.29
2018-04-24T05:32:46.947Z,13.24
2018-04-24T05:48:15.045Z,12.99
2018-04-24T05:50:43.140Z,12.96
2018-04-24T05:53:11.224Z,12.96
2018-04-24T06:08:44.338Z,13.01
2018-04-24T06:11:12.466Z,12.99
2018-04-24T06:13:40.550Z,13.11
2018-04-24T06:16:08.675Z,13.20
2018-04-24T06:18:36.758Z,13.20
2018-04-24T06:21:10.404Z,13.07
2018-04-24T06:23:38.521Z,13.30
2018-04-24T06:26:06.608Z,13.38
2018-04-24T06:28:34.827Z,13.33
2018-04-24T06:31:02.864Z,13.37
2018-04-24T06:33:30.952Z,13.47
2018-04-24T06:35:59.416Z,13.48
2018-04-24T06:38:27.471Z,13.45
2018-04-24T06:53:55.616Z,13.32
2018-04-24T06:56:23.697Z,13.37
2018-04-24T07:11:47.124Z,13.55
2018-04-24T07:14:15.210Z,13.46
2018-04-24T07:16:48.262Z,13.45
2018-04-24T07:19:16.339Z,13.42
2018-04-24T07:21:44.731Z,13.51
2018-04-24T07:24:12.838Z,13.54
2018-04-24T07:26:41.404Z,13.65
2018-04-24T07:29:09.508Z,13.71
2018-04-24T07:31:37.646Z,13.69
2018-04-24T07:34:05.716Z,13.71
2018-04-24T07:36:33.838Z,13.59
2018-04-24T07:39:01.932Z,13.38
2018-04-24T07:41:30.285Z,13.36
2018-04-24T07:43:58.798Z,13.47
2018-04-24T07:46:32.185Z,13.63
2018-04-24T07:49:00.266Z,13.61
2018-04-24T07:51:29.219Z,13.62
2018-04-24T07:53:57.327Z,13.68
2018-04-24T07:56:25.393Z,13.76
2018-04-24T07:58:53.792Z,13.72
2018-04-24T08:01:21.971Z,13.57
2018-04-24T08:03:50.036Z,13.55
2018-04-24T08:06:18.133Z,13.63
2018-04-24T08:08:46.279Z,13.68
2018-04-24T08:11:14.344Z,13.61
2018-04-24T08:13:42.422Z,13.48
2018-04-24T08:16:10.512Z,13.59
2018-04-24T08:18:38.634Z,13.64
2018-04-24T08:34:06.970Z,13.65
2018-04-24T08:36:35.090Z,13.70
2018-04-24T08:39:03.203Z,13.71
2018-04-24T08:41:31.314Z,13.68
2018-04-24T08:43:59.926Z,13.76
2018-04-24T08:46:28.968Z,13.68
2018-04-24T08:48:57.044Z,13.77
2018-04-24T08:51:30.091Z,13.91
2018-04-24T08:54:00.621Z,13.93
2018-04-24T08:56:28.720Z,13.91
2018-04-24T08:58:57.037Z,13.98
2018-04-24T09:01:25.115Z,13.95
2018-04-24T09:03:54.110Z,13.95
2018-04-24T09:06:22.269Z,13.99
2018-04-24T09:08:50.706Z,14.09
2018-04-24T09:11:18.780Z,14.17
2018-04-24T09:13:46.997Z,14.15
2018-04-24T09:16:20.503Z,14.02
2018-04-24T09:18:48.606Z,13.98
2018-04-24T09:21:16.694Z,14.03
2018-04-24T09:23:45.098Z,14.16
2018-04-24T09:26:13.223Z,14.22
2018-04-24T09:28:41.821Z,14.35
2018-04-24T09:31:09.896Z,14.49
2018-04-24T09:33:38.113Z,14.48
2018-04-24T09:36:06.106Z,14.64
2018-04-24T09:38:40.952Z,14.67
2018-04-24T09:41:09.035Z,14.72
2018-04-24T09:43:37.906Z,14.54
2018-04-24T09:46:06.071Z,14.51
2018-04-24T09:48:34.124Z,14.55
2018-04-24T09:51:02.238Z,14.51
2018-04-24T09:53:30.462Z,14.35
2018-04-24T09:55:58.533Z,14.33
2018-04-24T09:58:26.654Z,14.23
2018-04-24T10:00:54.762Z,14.11
2018-04-24T10:03:22.853Z,14.09
2018-04-24T10:05:50.934Z,14.08
2018-04-24T10:08:19.062Z,14.18
2018-04-24T10:10:52.702Z,14.21
2018-04-24T10:13:20.801Z,14.07
2018-04-24T10:15:48.888Z,14.20
2018-04-24T10:18:16.971Z,14.27
2018-04-24T10:20:45.088Z,14.32
2018-04-24T10:23:13.167Z,14.39
2018-04-24T10:25:41.266Z,14.44
2018-04-24T10:28:09.373Z,14.52
2018-04-24T10:30:37.469Z,14.56
2018-04-24T10:33:05.712Z,14.55
2018-04-24T10:35:33.849Z,14.57
2018-04-24T10:38:01.964Z,14.64
2018-04-24T10:40:30.084Z,14.53
2018-04-24T10:42:58.402Z,14.59
2018-04-24T10:45:27.350Z,14.56
2018-04-24T10:47:55.431Z,14.59
2018-04-24T10:50:23.529Z,14.60
2018-04-24T10:52:51.628Z,14.67
2018-04-24T10:55:25.119Z,14.68
2018-04-24T10:57:53.232Z,14.71
2018-04-24T11:00:21.315Z,14.73
2018-04-24T11:02:49.406Z,14.77
2018-04-24T11:05:18.324Z,14.72
2018-04-24T11:07:46.383Z,14.80
2018-04-24T11:10:15.283Z,14.93
2018-04-24T11:12:43.391Z,14.98
2018-04-24T11:24:56.499Z,14.93
2018-04-24T11:27:30.048Z,15.00
2018-04-24T11:29:58.187Z,15.06
2018-04-24T11:32:26.775Z,15.09
2018-04-24T11:34:55.095Z,15.09
2018-04-24T11:37:28.785Z,15.05
2018-04-24T11:39:57.605Z,15.07
2018-04-24T11:42:26.017Z,15.09
2018-04-24T11:44:54.104Z,15.17
2018-04-24T11:47:22.795Z,15.20
2018-04-24T11:49:50.878Z,15.19
2018-04-24T11:52:19.734Z,15.26
2018-04-24T11:54:47.895Z,15.37
2018-04-24T11:57:15.894Z,15.35
2018-04-24T11:59:44.366Z,15.39
2018-04-24T12:02:12.440Z,15.26
2018-04-24T12:04:41.234Z,15.25
2018-04-24T12:07:10.336Z,15.30
2018-04-24T12:09:44.059Z,15.18
2018-04-24T12:12:12.171Z,15.26
2018-04-24T12:27:45.863Z,15.51
2018-04-24T12:30:13.955Z,15.48
2018-04-24T12:32:42.076Z,15.56
2018-04-24T12:35:10.253Z,15.57
2018-04-24T12:37:38.346Z,15.62
2018-04-24T12:40:08.183Z,15.59
2018-04-24T12:42:41.905Z,15.45
2018-04-24T12:45:10.051Z,15.37
2018-04-24T12:47:38.103Z,15.42
2018-04-24T12:50:06.297Z,15.45
2018-04-24T12:52:39.843Z,15.48
2018-04-24T12:55:07.955Z,15.52
2018-04-24T12:57:36.051Z,15.57
2018-04-24T13:00:04.425Z,15.66
2018-04-24T13:02:32.548Z,15.69
2018-04-24T13:05:01.582Z,15.78
2018-04-24T13:07:29.677Z,15.82
2018-04-24T13:09:57.825Z,15.91
2018-04-24T13:12:25.904Z,15.88
2018-04-24T13:14:53.993Z,15.83
2018-04-24T13:17:22.431Z,15.85
2018-04-24T13:19:51.303Z,15.85
2018-04-24T13:22:19.569Z,15.75
2018-04-24T13:24:48.498Z,15.63
2018-04-24T13:27:16.573Z,15.73
2018-04-24T13:29:44.651Z,15.72
2018-04-24T13:32:13.267Z,15.73
2018-04-24T13:34:41.387Z,15.60
2018-04-24T13:37:10.226Z,15.59
2018-04-24T13:39:38.931Z,15.66
2018-04-24T13:42:07.076Z,15.60
2018-04-24T13:44:35.103Z,15.68
2018-04-24T14:00:03.226Z,15.63
2018-04-24T14:02:31.314Z,15.71
2018-04-24T14:04:59.506Z,15.77
2018-04-24T14:07:27.714Z,15.85
2018-04-24T14:09:55.838Z,15.90
2018-04-24T14:12:28.910Z,15.93
2018-04-24T14:14:57.016Z,15.93
2018-04-24T14:17:25.112Z,15.86
2018-04-24T14:19:53.235Z,15.84
2018-04-24T14:22:21.327Z,15.86
2018-04-24T14:24:49.453Z,15.92
2018-04-24T14:27:17.618Z,16.04
2018-04-24T14:29:45.711Z,15.95
2018-04-24T14:32:13.804Z,15.94
2018-04-24T14:34:47.822Z,16.07
2018-04-24T14:37:21.521Z,16.08
2018-04-24T14:39:49.630Z,15.96
2018-04-24T14:42:22.673Z,15.98
2018-04-24T14:44:51.201Z,16.05
2018-04-24T14:47:20.099Z,16.12
2018-04-24T14:49:48.194Z,16.07
2018-04-24T14:52:16.953Z,16.04
2018-04-24T14:54:45.058Z,16.01
2018-04-24T14:57:13.893Z,16.06
2018-04-24T14:59:42.400Z,16.00
2018-04-24T15:02:10.472Z,16.03
2018-04-24T15:04:38.568Z,16.03
2018-04-24T15:07:06.757Z,16.08
2018-04-24T15:09:35.695Z,16.07
2018-04-24T15:12:04.113Z,16.11
2018-04-24T15:14:32.261Z,16.10
2018-04-24T15:17:00.365Z,16.01
2018-04-24T15:19:29.088Z,15.95
2018-04-24T15:21:57.209Z,15.93
2018-04-24T15:24:25.265Z,15.92
2018-04-24T15:26:54.272Z,16.01
2018-04-24T15:29:22.385Z,16.02
2018-04-24T15:31:51.271Z,16.10
2018-04-24T15:34:19.395Z,15.98
2018-04-24T15:36:47.779Z,16.09
2018-04-24T15:39:15.877Z,16.15
2018-04-24T15:41:44.044Z,16.05
2018-04-24T15:44:12.116Z,16.10
2018-04-24T15:46:41.184Z,16.12
2018-04-24T15:49:09.299Z,16.12
2018-04-24T15:51:37.457Z,16.05
2018-04-24T15:54:05.565Z,16.06
2018-04-24T15:56:34.646Z,16.11
2018-04-24T15:59:03.528Z,16.14
2018-04-24T16:01:31.677Z,16.17
2018-04-24T16:04:00.266Z,16.24
2018-04-24T16:06:28.350Z,16.27
2018-04-24T16:08:56.460Z,16.26
2018-04-24T16:11:24.668Z,16.29
2018-04-24T16:13:52.757Z,16.25
2018-04-24T16:16:20.885Z,16.13
2018-04-24T16:18:49.089Z,16.13
2018-04-24T16:21:17.172Z,16.10
2018-04-24T16:23:45.949Z,16.10
2018-04-24T16:26:14.023Z,16.13
2018-04-24T16:28:42.574Z,16.02
2018-04-24T16:31:16.231Z,16.00
2018-04-24T16:33:44.416Z,15.98
2018-04-24T16:36:12.429Z,15.95
2018-04-24T16:38:40.541Z,15.88
2018-04-24T16:41:08.646Z,15.86
2018-04-24T16:43:37.452Z,15.85
2018-04-24T16:46:05.557Z,15.89
2018-04-24T16:48:39.904Z,15.83
2018-04-24T16:51:08.647Z,15.83
2018-04-24T16:53:36.719Z,15.82
2018-04-24T16:56:04.878Z,15.90
2018-04-24T16:58:32.963Z,15.99
2018-04-24T17:01:01.079Z,15.93
2018-04-24T17:03:29.205Z,15.86
2018-04-24T17:05:57.317Z,15.90
2018-04-24T17:08:25.380Z,15.91
2018-04-24T17:10:53.484Z,15.86
2018-04-24T17:13:21.582Z,15.86
2018-04-24T17:15:49.732Z,15.86
2018-04-24T17:18:17.874Z,15.92
2018-04-24T17:20:51.023Z,15.94
2018-04-24T17:23:19.611Z,15.92
2018-04-24T17:25:47.708Z,15.98
2018-04-24T17:28:15.835Z,16.03
2018-04-24T17:30:44.012Z,16.00
2018-04-24T17:33:12.060Z,15.96
2018-04-24T17:35:40.204Z,15.98
2018-04-24T17:38:13.758Z,15.99
2018-04-24T17:40:41.867Z,16.02
2018-04-24T17:43:09.975Z,15.96
2018-04-24T17:45:38.069Z,15.97
2018-04-24T17:48:06.175Z,15.96
2018-04-24T17:50:34.275Z,15.93
2018-04-24T17:53:02.375Z,15.98
2018-04-24T17:55:30.471Z,15.97
2018-04-24T17:57:58.565Z,15.98
2018-04-24T18:00:26.659Z,15.99
2018-04-24T18:02:54.775Z,16.00
2018-04-24T18:05:22.876Z,16.00
2018-04-24T18:07:50.968Z,16.03
2018-04-24T18:10:19.080Z,16.02
2018-04-24T18:12:47.172Z,15.98
2018-04-24T18:15:15.260Z,15.91
2018-04-24T18:17:43.409Z,15.90
2018-04-24T18:20:11.503Z,15.90
2018-04-24T18:22:39.583Z,15.82
2018-04-24T18:25:07.692Z,15.83
2018-04-24T18:27:36.835Z,15.85
2018-04-24T18:30:05.162Z,15.88
2018-04-24T18:32:33.720Z,15.88
2018-04-24T18:35:01.826Z,15.90
2018-04-24T18:37:29.931Z,15.87
2018-04-24T18:39:58.375Z,15.94
2018-04-24T18:42:26.480Z,15.94
2018-04-24T18:57:59.576Z,15.87
2018-04-24T19:00:27.666Z,15.88
2018-04-24T19:02:55.800Z,15.93
2018-04-24T19:05:23.921Z,15.87
2018-04-24T19:07:52.082Z,15.90
2018-04-24T19:10:20.765Z,15.84
2018-04-24T19:12:48.875Z,15.83
2018-04-24T19:15:16.959Z,15.80
2018-04-24T19:17:46.762Z,15.76
2018-04-24T19:33:14.856Z,15.67
2018-04-24T19:35:42.957Z,15.65
2018-04-24T19:38:11.075Z,15.65
2018-04-24T19:40:44.936Z,15.59
2018-04-24T19:43:12.994Z,15.56
2018-04-24T19:45:42.215Z,15.59
2018-04-24T19:48:16.054Z,15.63
2018-04-24T19:50:44.151Z,15.57
2018-04-24T19:53:12.679Z,15.50
2018-04-24T20:08:46.182Z,15.32
2018-04-24T20:11:14.280Z,15.30
2018-04-24T20:13:43.153Z,15.33
2018-04-24T20:16:11.283Z,15.40
2018-04-24T20:18:39.386Z,15.38
2018-04-24T20:21:07.450Z,15.41
2018-04-24T20:23:35.562Z,15.40
2018-04-24T20:26:03.655Z,15.47
2018-04-24T20:28:31.738Z,15.43
2018-04-24T20:40:44.980Z,15.29
2018-04-24T20:43:13.114Z,15.31
2018-04-24T20:45:41.201Z,15.30
2018-04-24T20:48:10.771Z,15.30
2018-04-24T20:50:38.831Z,15.30
2018-04-24T20:53:07.202Z,15.32
2018-04-24T20:55:35.313Z,15.37
2018-04-24T20:58:04.309Z,15.32
2018-04-24T21:00:32.446Z,15.25
2018-04-24T21:03:02.147Z,15.30
2018-04-24T21:05:30.163Z,15.29
2018-04-24T21:07:59.060Z,15.29
2018-04-24T21:10:27.959Z,15.31
2018-04-24T21:12:56.047Z,15.21
2018-04-24T21:15:24.140Z,15.21
2018-04-24T21:30:52.250Z,15.01
2018-04-24T21:33:21.192Z,15.03
2018-04-24T21:35:50.198Z,15.07
2018-04-24T21:38:23.208Z,15.10
2018-04-24T21:40:51.309Z,15.04
2018-04-24T21:43:19.436Z,15.09
2018-04-24T21:45:47.538Z,15.10
2018-04-24T21:48:16.171Z,15.13
2018-04-24T21:50:44.262Z,15.20
2018-04-24T21:53:12.352Z,15.25
2018-04-24T21:55:46.416Z,15.24
2018-04-24T21:58:14.561Z,15.19
2018-04-24T22:00:42.631Z,15.14
2018-04-24T22:03:11.744Z,15.15
2018-04-24T22:05:39.837Z,15.08
2018-04-24T22:08:07.922Z,15.13
2018-04-24T22:10:36.015Z,15.13
2018-04-24T22:13:04.096Z,15.07
2018-04-24T22:15:32.172Z,14.99
2018-04-24T22:18:00.270Z,15.08
2018-04-24T22:20:28.834Z,15.04
2018-04-24T22:22:57.242Z,14.97
2018-04-24T22:25:30.730Z,14.99
2018-04-24T22:27:59.025Z,15.06
2018-04-24T22:30:27.091Z,15.08
2018-04-24T22:32:55.213Z,15.16
2018-04-24T22:35:23.266Z,15.05
2018-04-24T22:37:51.402Z,15.05
2018-04-24T22:40:19.490Z,15.06
2018-04-24T22:42:47.572Z,15.02
2018-04-24T22:45:21.093Z,14.90
2018-04-24T22:47:49.772Z,14.93
2018-04-24T22:50:17.852Z,14.84
2018-04-24T22:52:45.959Z,14.82
2018-04-24T22:55:14.037Z,14.86
2018-04-24T22:57:42.799Z,14.89
2018-04-24T23:00:10.907Z,14.87
2018-04-24T23:02:39.023Z,14.88
2018-04-24T23:05:07.443Z,14.97
2018-04-24T23:07:35.515Z,14.93
2018-04-24T23:10:03.254Z,14.89
2018-04-24T23:12:43.052Z,14.86
2018-04-24T23:15:22.979Z,14.89
2018-04-24T23:18:02.841Z,14.84
2018-04-24T23:20:32.095Z,14.81
2018-04-24T23:23:00.199Z,14.84
2018-04-24T23:25:28.291Z,14.89
2018-04-24T23:27:57.240Z,14.92
2018-04-24T23:30:25.328Z,14.93
2018-04-24T23:32:53.430Z,14.86
2018-04-24T23:35:21.506Z,14.79
2018-04-24T23:37:49.634Z,14.81
2018-04-24T23:40:18.575Z,14.80
2018-04-24T23:42:46.695Z,14.82
2018-04-24T23:45:14.813Z,14.88
2018-04-24T23:47:44.590Z,14.88
2018-04-24T23:50:13.040Z,14.84
2018-04-24T23:52:41.110Z,14.85
2018-04-24T23:55:09.335Z,14.85
2018-04-24T23:57:38.015Z,14.89
